PWSweather.com
Personal Weather Stations
Station Observations
SHAHALMS1
Eftra, Falkenberg, HA

EftraFalkenberg, HA

Lat: 56.85, Lon: 12.65

Elevation: 140

Station Type:

http://hem.passagen.se/risarp101

High Low Average
Temperature 73.4°F23.0°C 55.9°F13.3°C 65.2°F18.4°C
Dew Point 62.8°F17.1°C 46.6°F8.1°C 55.6°F13.1°C
Winds 10.8 mph 17.4 kmh Calm Calm 4.0 mph W6.4 kmh W
Wind Gusts 20.8 mph33.5 kmh -- 10.0 mph16.1 kmh
Humidity 84% 55% 72%
Pressure 30.21 in1023.0 mb 30.09 in1019.0 mb -
Precipitation 0.00 in0.0 mm - -
Hour Temp Dew Point Humidity Winds Wind Gusts Pressure Precip Precip Rate Daily Precip Total
12:00 AM 61.7°F16.5°C 56.5°F13.6°C 83% 5.2 mph WNW8.4 kmh WNW 15.4 mph24.8 kmh 30.09 in1019.0 mb 0.00 in0.0 mm 0.00 in0.0 mm 0.00 in0.0 mm
12:10 AM 61.5°F16.4°C 56.3°F13.5°C 83% 4.9 mph WNW7.9 kmh WNW 13.6 mph21.9 kmh 30.09 in1019.0 mb 0.00 in0.0 mm 0.00 in0.0 mm 0.00 in0.0 mm
12:20 AM 61.5°F16.4°C 56.3°F13.5°C 83% 5.8 mph W9.3 kmh W 14.0 mph22.5 kmh 30.09 in1019.0 mb 0.00 in0.0 mm 0.00 in0.0 mm 0.00 in0.0 mm
12:30 AM 61.3°F16.3°C 56.1°F13.4°C 83% 5.3 mph NW8.5 kmh NW 16.5 mph26.6 kmh 30.09 in1019.0 mb 0.00 in0.0 mm 0.00 in0.0 mm 0.00 in0.0 mm
12:40 AM 61.2°F16.2°C 56.0°F13.3°C 83% 5.3 mph WNW8.5 kmh WNW 12.2 mph19.6 kmh 30.09 in1019.0 mb 0.00 in0.0 mm 0.00 in0.0 mm 0.00 in0.0 mm
12:50 AM 61.2°F16.2°C 56.0°F13.3°C 83% 4.6 mph NW7.4 kmh NW 12.9 mph20.8 kmh 30.09 in1019.0 mb 0.00 in0.0 mm 0.00 in0.0 mm 0.00 in0.0 mm
01:00 AM 61.0°F16.1°C 56.1°F13.4°C 84% 5.4 mph WNW8.7 kmh WNW 12.9 mph20.8 kmh 30.09 in1019.0 mb 0.00 in0.0 mm 0.00 in0.0 mm 0.00 in0.0 mm
01:10 AM 60.8°F16.0°C 55.6°F13.1°C 83% 4.2 mph NW6.8 kmh NW 10.4 mph16.7 kmh 30.09 in1019.0 mb 0.00 in0.0 mm 0.00 in0.0 mm 0.00 in0.0 mm
01:20 AM 60.8°F16.0°C 55.9°F13.3°C 84% 4.8 mph W7.7 kmh W 14.0 mph22.5 kmh 30.09 in1019.0 mb 0.00 in0.0 mm 0.00 in0.0 mm 0.00 in0.0 mm
01:30 AM 60.6°F15.9°C 55.8°F13.2°C 84% 5.7 mph WNW9.2 kmh WNW 11.8 mph19.0 kmh 30.09 in1019.0 mb 0.00 in0.0 mm 0.00 in0.0 mm 0.00 in0.0 mm
01:40 AM 60.4°F15.8°C 55.6°F13.1°C 84% 5.2 mph WNW8.4 kmh WNW 12.2 mph19.6 kmh 30.09 in1019.0 mb 0.00 in0.0 mm 0.00 in0.0 mm 0.00 in0.0 mm
01:50 AM 60.4°F15.8°C 55.6°F13.1°C 84% 4.4 mph W7.1 kmh W 9.7 mph15.6 kmh 30.09 in1019.0 mb 0.00 in0.0 mm 0.00 in0.0 mm 0.00 in0.0 mm
02:00 AM 60.3°F15.7°C 55.4°F13.0°C 84% 3.5 mph W5.6 kmh W 10.4 mph16.7 kmh 30.09 in1019.0 mb 0.00 in0.0 mm 0.00 in0.0 mm 0.00 in0.0 mm
02:10 AM 60.3°F15.7°C 55.4°F13.0°C 84% 4.3 mph WNW6.9 kmh WNW 9.7 mph15.6 kmh 30.09 in1019.0 mb 0.00 in0.0 mm 0.00 in0.0 mm 0.00 in0.0 mm
02:20 AM 60.1°F15.6°C 55.2°F12.9°C 84% 3.5 mph WNW5.6 kmh WNW 10.4 mph16.7 kmh 30.09 in1019.0 mb 0.00 in0.0 mm 0.00 in0.0 mm 0.00 in0.0 mm
02:30 AM 60.1°F15.6°C 55.2°F12.9°C 84% 3.4 mph WNW5.5 kmh WNW 12.9 mph20.8 kmh 30.09 in1019.0 mb 0.00 in0.0 mm 0.00 in0.0 mm 0.00 in0.0 mm
02:40 AM 60.1°F15.6°C 55.2°F12.9°C 84% 3.1 mph WNW5.0 kmh WNW 12.5 mph20.1 kmh 30.09 in1019.0 mb 0.00 in0.0 mm 0.00 in0.0 mm 0.00 in0.0 mm
02:50 AM 60.1°F15.6°C 55.2°F12.9°C 84% 2.8 mph WNW4.5 kmh WNW 11.5 mph18.5 kmh 30.09 in1019.0 mb 0.00 in0.0 mm 0.00 in0.0 mm 0.00 in0.0 mm
03:00 AM 59.9°F15.5°C 55.1°F12.8°C 84% 2.7 mph NW4.3 kmh NW 9.7 mph15.6 kmh 30.09 in1019.0 mb 0.00 in0.0 mm 0.00 in0.0 mm 0.00 in0.0 mm
03:10 AM 59.9°F15.5°C 55.1°F12.8°C 84% 3.8 mph W6.1 kmh W 12.2 mph19.6 kmh 30.09 in1019.0 mb 0.00 in0.0 mm 0.00 in0.0 mm 0.00 in0.0 mm
03:20 AM 59.9°F15.5°C 55.1°F12.8°C 84% 3.1 mph W5.0 kmh W 10.0 mph16.1 kmh 30.09 in1019.0 mb 0.00 in0.0 mm 0.00 in0.0 mm 0.00 in0.0 mm
03:30 AM 59.9°F15.5°C 55.1°F12.8°C 84% 4.3 mph WNW6.9 kmh WNW 12.5 mph20.1 kmh 30.09 in1019.0 mb 0.00 in0.0 mm 0.00 in0.0 mm 0.00 in0.0 mm
03:40 AM 59.9°F15.5°C 55.1°F12.8°C 84% 4.7 mph WNW7.6 kmh WNW 11.5 mph18.5 kmh 30.09 in1019.0 mb 0.00 in0.0 mm 0.00 in0.0 mm 0.00 in0.0 mm
03:50 AM 59.9°F15.5°C 55.1°F12.8°C 84% 3.8 mph W6.1 kmh W 9.3 mph15.0 kmh 30.09 in1019.0 mb 0.00 in0.0 mm 0.00 in0.0 mm 0.00 in0.0 mm
04:00 AM 59.9°F15.5°C 54.7°F12.6°C 83% 5.2 mph WNW8.4 kmh WNW 13.6 mph21.9 kmh 30.09 in1019.0 mb 0.00 in0.0 mm 0.00 in0.0 mm 0.00 in0.0 mm
04:10 AM 59.7°F15.4°C 54.5°F12.5°C 83% 5.0 mph WNW8.0 kmh WNW 15.4 mph24.8 kmh 30.09 in1019.0 mb 0.00 in0.0 mm 0.00 in0.0 mm 0.00 in0.0 mm
04:20 AM 59.7°F15.4°C 54.5°F12.5°C 83% 5.3 mph WNW8.5 kmh WNW 14.0 mph22.5 kmh 30.09 in1019.0 mb 0.00 in0.0 mm 0.00 in0.0 mm 0.00 in0.0 mm
04:30 AM 59.7°F15.4°C 54.5°F12.5°C 83% 5.0 mph WNW8.0 kmh WNW 15.7 mph25.3 kmh 30.09 in1019.0 mb 0.00 in0.0 mm 0.00 in0.0 mm 0.00 in0.0 mm
04:40 AM 59.7°F15.4°C 54.2°F12.3°C 82% 4.6 mph WNW7.4 kmh WNW 15.7 mph25.3 kmh 30.09 in1019.0 mb 0.00 in0.0 mm 0.00 in0.0 mm 0.00 in0.0 mm
04:50 AM 59.9°F15.5°C 54.7°F12.6°C 83% 3.8 mph WNW6.1 kmh WNW 10.0 mph16.1 kmh 30.09 in1019.0 mb 0.00 in0.0 mm 0.00 in0.0 mm 0.00 in0.0 mm
05:00 AM 60.1°F15.6°C 54.6°F12.6°C 82% 2.3 mph NW3.7 kmh NW 10.4 mph16.7 kmh 30.09 in1019.0 mb 0.00 in0.0 mm 0.00 in0.0 mm 0.00 in0.0 mm
05:10 AM 60.1°F15.6°C 54.6°F12.6°C 82% 3.3 mph WNW5.3 kmh WNW 9.3 mph15.0 kmh 30.09 in1019.0 mb 0.00 in0.0 mm 0.00 in0.0 mm 0.00 in0.0 mm
05:20 AM 60.3°F15.7°C 54.7°F12.6°C 82% 3.7 mph W6.0 kmh W 11.5 mph18.5 kmh 30.09 in1019.0 mb 0.00 in0.0 mm 0.00 in0.0 mm 0.00 in0.0 mm
05:30 AM 60.4°F15.8°C 54.9°F12.7°C 82% 3.4 mph WNW5.5 kmh WNW 10.0 mph16.1 kmh 30.09 in1019.0 mb 0.00 in0.0 mm 0.00 in0.0 mm 0.00 in0.0 mm
05:40 AM 60.4°F15.8°C 54.6°F12.6°C 81% 3.0 mph WNW4.8 kmh WNW 10.4 mph16.7 kmh 30.09 in1019.0 mb 0.00 in0.0 mm 0.00 in0.0 mm 0.00 in0.0 mm
05:50 AM 60.6°F15.9°C 54.8°F12.7°C 81% 2.2 mph WNW3.5 kmh WNW 8.9 mph14.3 kmh 30.09 in1019.0 mb 0.00 in0.0 mm 0.00 in0.0 mm 0.00 in0.0 mm
06:00 AM 61.0°F16.1°C 55.1°F12.8°C 81% 2.1 mph NW3.4 kmh NW 9.3 mph15.0 kmh 30.09 in1019.0 mb 0.00 in0.0 mm 0.00 in0.0 mm 0.00 in0.0 mm
06:10 AM 61.3°F16.3°C 55.8°F13.2°C 82% 2.0 mph W3.2 kmh W 10.0 mph16.1 kmh 30.09 in1019.0 mb 0.00 in0.0 mm 0.00 in0.0 mm 0.00 in0.0 mm
06:20 AM 61.9°F16.6°C 56.0°F13.3°C 81% 1.2 mph NW1.9 kmh NW 6.4 mph10.3 kmh 30.09 in1019.0 mb 0.00 in0.0 mm 0.00 in0.0 mm 0.00 in0.0 mm
06:30 AM 61.9°F16.6°C 55.6°F13.1°C 80% 1.9 mph NW3.1 kmh NW 10.0 mph16.1 kmh 30.09 in1019.0 mb 0.00 in0.0 mm 0.00 in0.0 mm 0.00 in0.0 mm
06:40 AM 62.2°F16.8°C 55.6°F13.1°C 79% 4.6 mph NNW7.4 kmh NNW 10.0 mph16.1 kmh 30.09 in1019.0 mb 0.00 in0.0 mm 0.00 in0.0 mm 0.00 in0.0 mm
06:50 AM 62.8°F17.1°C 55.8°F13.2°C 78% 2.7 mph NNW4.3 kmh NNW 9.7 mph15.6 kmh 30.12 in1020.0 mb 0.00 in0.0 mm 0.00 in0.0 mm 0.00 in0.0 mm
07:00 AM 63.1°F17.3°C 55.8°F13.2°C 77% 1.5 mph WNW2.4 kmh WNW 9.3 mph15.0 kmh 30.09 in1019.0 mb 0.00 in0.0 mm 0.00 in0.0 mm 0.00 in0.0 mm
07:10 AM 63.7°F17.6°C 56.3°F13.5°C 77% 1.2 mph W1.9 kmh W 8.6 mph13.8 kmh 30.09 in1019.0 mb 0.00 in0.0 mm 0.00 in0.0 mm 0.00 in0.0 mm
07:20 AM 63.9°F17.7°C 56.1°F13.4°C 76% 0.7 mph WSW1.1 kmh WSW 5.0 mph8.0 kmh 30.12 in1020.0 mb 0.00 in0.0 mm 0.00 in0.0 mm 0.00 in0.0 mm
07:30 AM 64.0°F17.8°C 56.0°F13.3°C 75% 1.2 mph NW1.9 kmh NW 5.7 mph9.2 kmh 30.12 in1020.0 mb 0.00 in0.0 mm 0.00 in0.0 mm 0.00 in0.0 mm
07:40 AM 64.4°F18.0°C 55.6°F13.1°C 73% 4.6 mph NNW7.4 kmh NNW 10.4 mph16.7 kmh 30.12 in1020.0 mb 0.00 in0.0 mm 0.00 in0.0 mm 0.00 in0.0 mm
07:50 AM 64.6°F18.1°C 55.7°F13.2°C 73% 5.2 mph NW8.4 kmh NW 10.4 mph16.7 kmh 30.12 in1020.0 mb 0.00 in0.0 mm 0.00 in0.0 mm 0.00 in0.0 mm
08:00 AM 65.1°F18.4°C 56.2°F13.4°C 73% 0.8 mph NW1.3 kmh NW 6.8 mph10.9 kmh 30.12 in1020.0 mb 0.00 in0.0 mm 0.00 in0.0 mm 0.00 in0.0 mm
08:10 AM 65.8°F18.8°C 55.8°F13.2°C 70% 4.1 mph NW6.6 kmh NW 10.4 mph16.7 kmh 30.12 in1020.0 mb 0.00 in0.0 mm 0.00 in0.0 mm 0.00 in0.0 mm
08:20 AM 67.3°F19.6°C 56.4°F13.6°C 68% 2.7 mph WNW4.3 kmh WNW 8.9 mph14.3 kmh 30.15 in1021.0 mb 0.00 in0.0 mm 0.00 in0.0 mm 0.00 in0.0 mm
08:30 AM 67.5°F19.7°C 56.1°F13.4°C 67% 2.8 mph WNW4.5 kmh WNW 8.6 mph13.8 kmh 30.12 in1020.0 mb 0.00 in0.0 mm 0.00 in0.0 mm 0.00 in0.0 mm
08:40 AM 68.4°F20.2°C 56.6°F13.7°C 66% 1.6 mph NW2.6 kmh NW 6.1 mph9.8 kmh 30.12 in1020.0 mb 0.00 in0.0 mm 0.00 in0.0 mm 0.00 in0.0 mm
08:50 AM 68.5°F20.3°C 56.7°F13.7°C 66% 2.5 mph WNW4.0 kmh WNW 7.9 mph12.7 kmh 30.12 in1020.0 mb 0.00 in0.0 mm 0.00 in0.0 mm 0.00 in0.0 mm
09:00 AM 68.7°F20.4°C 56.5°F13.6°C 65% 4.1 mph NW6.6 kmh NW 10.4 mph16.7 kmh 30.12 in1020.0 mb 0.00 in0.0 mm 0.00 in0.0 mm 0.00 in0.0 mm
09:10 AM 69.4°F20.8°C 57.2°F14.0°C 65% 3.4 mph WNW5.5 kmh WNW 11.5 mph18.5 kmh 30.12 in1020.0 mb 0.00 in0.0 mm 0.00 in0.0 mm 0.00 in0.0 mm
09:20 AM 69.6°F20.9°C 56.9°F13.8°C 64% 3.6 mph W5.8 kmh W 10.0 mph16.1 kmh 30.12 in1020.0 mb 0.00 in0.0 mm 0.00 in0.0 mm 0.00 in0.0 mm
09:30 AM 70.0°F21.1°C 57.2°F14.0°C 64% 3.4 mph W5.5 kmh W 9.7 mph15.6 kmh 30.12 in1020.0 mb 0.00 in0.0 mm 0.00 in0.0 mm 0.00 in0.0 mm
09:40 AM 69.1°F20.6°C 56.0°F13.3°C 63% 3.7 mph NW6.0 kmh NW 10.0 mph16.1 kmh 30.12 in1020.0 mb 0.00 in0.0 mm 0.00 in0.0 mm 0.00 in0.0 mm
09:50 AM 69.3°F20.7°C 56.6°F13.7°C 64% 4.0 mph WSW6.4 kmh WSW 10.0 mph16.1 kmh 30.12 in1020.0 mb 0.00 in0.0 mm 0.00 in0.0 mm 0.00 in0.0 mm
10:00 AM 69.8°F21.0°C 57.1°F13.9°C 64% 3.4 mph W5.5 kmh W 9.3 mph15.0 kmh 30.12 in1020.0 mb 0.00 in0.0 mm 0.00 in0.0 mm 0.00 in0.0 mm
10:10 AM 69.3°F20.7°C 55.7°F13.2°C 62% 4.6 mph SSW7.4 kmh SSW 10.0 mph16.1 kmh 30.12 in1020.0 mb 0.00 in0.0 mm 0.00 in0.0 mm 0.00 in0.0 mm
10:20 AM 68.5°F20.3°C 55.4°F13.0°C 63% 3.6 mph WSW5.8 kmh WSW 10.0 mph16.1 kmh 30.12 in1020.0 mb 0.00 in0.0 mm 0.00 in0.0 mm 0.00 in0.0 mm
10:30 AM 68.4°F20.2°C 55.7°F13.2°C 64% 4.2 mph W6.8 kmh W 9.3 mph15.0 kmh 30.15 in1021.0 mb 0.00 in0.0 mm 0.00 in0.0 mm 0.00 in0.0 mm
10:40 AM 68.2°F20.1°C 56.0°F13.3°C 65% 2.1 mph WNW3.4 kmh WNW 7.9 mph12.7 kmh 30.15 in1021.0 mb 0.00 in0.0 mm 0.00 in0.0 mm 0.00 in0.0 mm
10:50 AM 67.8°F19.9°C 56.0°F13.3°C 66% 3.3 mph WNW5.3 kmh WNW 9.3 mph15.0 kmh 30.15 in1021.0 mb 0.00 in0.0 mm 0.00 in0.0 mm 0.00 in0.0 mm
11:00 AM 67.6°F19.8°C 55.9°F13.3°C 66% 2.9 mph WNW4.7 kmh WNW 8.9 mph14.3 kmh 30.15 in1021.0 mb 0.00 in0.0 mm 0.00 in0.0 mm 0.00 in0.0 mm
11:10 AM 66.9°F19.4°C 55.2°F12.9°C 66% 2.8 mph WNW4.5 kmh WNW 10.4 mph16.7 kmh 30.15 in1021.0 mb 0.00 in0.0 mm 0.00 in0.0 mm 0.00 in0.0 mm
11:20 AM 66.6°F19.2°C 55.7°F13.2°C 68% 4.2 mph WNW6.8 kmh WNW 8.9 mph14.3 kmh 30.15 in1021.0 mb 0.00 in0.0 mm 0.00 in0.0 mm 0.00 in0.0 mm
11:30 AM 66.7°F19.3°C 56.6°F13.7°C 70% 2.8 mph W4.5 kmh W 12.9 mph20.8 kmh 30.15 in1021.0 mb 0.00 in0.0 mm 0.00 in0.0 mm 0.00 in0.0 mm
11:40 AM 67.5°F19.7°C 57.7°F14.3°C 71% 3.0 mph WSW4.8 kmh WSW 10.0 mph16.1 kmh 30.15 in1021.0 mb 0.00 in0.0 mm 0.00 in0.0 mm 0.00 in0.0 mm
11:50 AM 68.2°F20.1°C 58.4°F14.7°C 71% 3.1 mph WSW5.0 kmh WSW 9.3 mph15.0 kmh 30.15 in1021.0 mb 0.00 in0.0 mm 0.00 in0.0 mm 0.00 in0.0 mm
12:00 PM 68.5°F20.3°C 58.8°F14.9°C 71% 2.7 mph WSW4.3 kmh WSW 8.6 mph13.8 kmh 30.15 in1021.0 mb 0.00 in0.0 mm 0.00 in0.0 mm 0.00 in0.0 mm
12:10 PM 67.8°F19.9°C 58.8°F14.9°C 73% 3.5 mph WSW5.6 kmh WSW 10.0 mph16.1 kmh 30.15 in1021.0 mb 0.00 in0.0 mm 0.00 in0.0 mm 0.00 in0.0 mm
12:20 PM 68.0°F20.0°C 59.8°F15.4°C 75% 4.1 mph W6.6 kmh W 11.5 mph18.5 kmh 30.15 in1021.0 mb 0.00 in0.0 mm 0.00 in0.0 mm 0.00 in0.0 mm
12:30 PM 67.8°F19.9°C 59.6°F15.3°C 75% 3.6 mph WNW5.8 kmh WNW 7.9 mph12.7 kmh 30.15 in1021.0 mb 0.00 in0.0 mm 0.00 in0.0 mm 0.00 in0.0 mm
12:40 PM 68.5°F20.3°C 60.3°F15.7°C 75% 4.5 mph W7.2 kmh W 11.5 mph18.5 kmh 30.15 in1021.0 mb 0.00 in0.0 mm 0.00 in0.0 mm 0.00 in0.0 mm
12:50 PM 69.1°F20.6°C 60.4°F15.8°C 74% 4.4 mph WNW7.1 kmh WNW 12.9 mph20.8 kmh 30.15 in1021.0 mb 0.00 in0.0 mm 0.00 in0.0 mm 0.00 in0.0 mm
01:00 PM 68.7°F20.4°C 60.1°F15.6°C 74% 4.8 mph W7.7 kmh W 16.1 mph25.9 kmh 30.15 in1021.0 mb 0.00 in0.0 mm 0.00 in0.0 mm 0.00 in0.0 mm
01:10 PM 68.9°F20.5°C 60.3°F15.7°C 74% 4.3 mph WNW6.9 kmh WNW 11.8 mph19.0 kmh 30.15 in1021.0 mb 0.00 in0.0 mm 0.00 in0.0 mm 0.00 in0.0 mm
01:20 PM 68.9°F20.5°C 60.3°F15.7°C 74% 6.9 mph NW11.1 kmh NW 20.8 mph33.5 kmh 30.15 in1021.0 mb 0.00 in0.0 mm 0.00 in0.0 mm 0.00 in0.0 mm
01:30 PM 68.9°F20.5°C 60.6°F15.9°C 75% 5.1 mph WNW8.2 kmh WNW 15.7 mph25.3 kmh 30.15 in1021.0 mb 0.00 in0.0 mm 0.00 in0.0 mm 0.00 in0.0 mm
01:40 PM 68.9°F20.5°C 60.6°F15.9°C 75% 3.6 mph W5.8 kmh W 12.5 mph20.1 kmh 30.15 in1021.0 mb 0.00 in0.0 mm 0.00 in0.0 mm 0.00 in0.0 mm
01:50 PM 68.9°F20.5°C 60.3°F15.7°C 74% 2.7 mph W4.3 kmh W 6.4 mph10.3 kmh 30.15 in1021.0 mb 0.00 in0.0 mm 0.00 in0.0 mm 0.00 in0.0 mm
02:00 PM 69.4°F20.8°C 60.4°F15.8°C 73% 3.8 mph NW6.1 kmh NW 9.7 mph15.6 kmh 30.15 in1021.0 mb 0.00 in0.0 mm 0.00 in0.0 mm 0.00 in0.0 mm
02:10 PM 70.7°F21.5°C 61.2°F16.2°C 72% 3.8 mph NW6.1 kmh NW 14.0 mph22.5 kmh 30.15 in1021.0 mb 0.00 in0.0 mm 0.00 in0.0 mm 0.00 in0.0 mm
02:20 PM 70.9°F21.6°C 60.6°F15.9°C 70% 3.6 mph NW5.8 kmh NW 9.7 mph15.6 kmh 30.15 in1021.0 mb 0.00 in0.0 mm 0.00 in0.0 mm 0.00 in0.0 mm
02:30 PM 70.9°F21.6°C 61.0°F16.1°C 71% 3.6 mph WNW5.8 kmh WNW 9.7 mph15.6 kmh 30.15 in1021.0 mb 0.00 in0.0 mm 0.00 in0.0 mm 0.00 in0.0 mm
02:40 PM 71.6°F22.0°C 61.3°F16.3°C 70% 2.9 mph NW4.7 kmh NW 9.3 mph15.0 kmh 30.15 in1021.0 mb 0.00 in0.0 mm 0.00 in0.0 mm 0.00 in0.0 mm
02:50 PM 71.6°F22.0°C 61.3°F16.3°C 70% 2.9 mph WNW4.7 kmh WNW 9.3 mph15.0 kmh 30.15 in1021.0 mb 0.00 in0.0 mm 0.00 in0.0 mm 0.00 in0.0 mm
03:00 PM 71.6°F22.0°C 61.7°F16.5°C 71% 3.2 mph WNW5.1 kmh WNW 7.5 mph12.1 kmh 30.15 in1021.0 mb 0.00 in0.0 mm 0.00 in0.0 mm 0.00 in0.0 mm
03:10 PM 72.3°F22.4°C 62.8°F17.1°C 72% 2.4 mph WNW3.9 kmh WNW 9.3 mph15.0 kmh 30.15 in1021.0 mb 0.00 in0.0 mm 0.00 in0.0 mm 0.00 in0.0 mm
03:20 PM 71.6°F22.0°C 61.3°F16.3°C 70% 2.8 mph W4.5 kmh W 8.6 mph13.8 kmh 30.15 in1021.0 mb 0.00 in0.0 mm 0.00 in0.0 mm 0.00 in0.0 mm
03:30 PM 70.7°F21.5°C 59.6°F15.3°C 68% 4.1 mph NW6.6 kmh NW 12.5 mph20.1 kmh 30.15 in1021.0 mb 0.00 in0.0 mm 0.00 in0.0 mm 0.00 in0.0 mm
03:40 PM 70.3°F21.3°C 60.1°F15.6°C 70% 3.2 mph NW5.1 kmh NW 9.7 mph15.6 kmh 30.15 in1021.0 mb 0.00 in0.0 mm 0.00 in0.0 mm 0.00 in0.0 mm
03:50 PM 71.6°F22.0°C 60.9°F16.1°C 69% 5.0 mph NW8.0 kmh NW 14.0 mph22.5 kmh 30.15 in1021.0 mb 0.00 in0.0 mm 0.00 in0.0 mm 0.00 in0.0 mm
04:00 PM 72.5°F22.5°C 60.9°F16.1°C 67% 4.6 mph NW7.4 kmh NW 13.6 mph21.9 kmh 30.15 in1021.0 mb 0.00 in0.0 mm 0.00 in0.0 mm 0.00 in0.0 mm
04:10 PM 72.3°F22.4°C 59.5°F15.3°C 64% 5.5 mph WNW8.9 kmh WNW 15.4 mph24.8 kmh 30.15 in1021.0 mb 0.00 in0.0 mm 0.00 in0.0 mm 0.00 in0.0 mm
04:20 PM 73.4°F23.0°C 59.1°F15.1°C 61% 6.9 mph NW11.1 kmh NW 14.0 mph22.5 kmh 30.15 in1021.0 mb 0.00 in0.0 mm 0.00 in0.0 mm 0.00 in0.0 mm
04:30 PM 73.2°F22.9°C 57.6°F14.2°C 58% 7.9 mph NW12.7 kmh NW 17.5 mph28.2 kmh 30.15 in1021.0 mb 0.00 in0.0 mm 0.00 in0.0 mm 0.00 in0.0 mm
04:40 PM 72.9°F22.7°C 58.6°F14.8°C 61% 5.6 mph NW9.0 kmh NW 15.4 mph24.8 kmh 30.15 in1021.0 mb 0.00 in0.0 mm 0.00 in0.0 mm 0.00 in0.0 mm
04:50 PM 72.0°F22.2°C 56.8°F13.8°C 59% 10.8 mph NNW17.4 kmh NNW 19.3 mph31.1 kmh 30.15 in1021.0 mb 0.00 in0.0 mm 0.00 in0.0 mm 0.00 in0.0 mm
05:00 PM 71.8°F22.1°C 56.7°F13.7°C 59% 7.0 mph NNW11.3 kmh NNW 14.0 mph22.5 kmh 30.15 in1021.0 mb 0.00 in0.0 mm 0.00 in0.0 mm 0.00 in0.0 mm
05:10 PM 71.8°F22.1°C 57.6°F14.2°C 61% 7.9 mph NW12.7 kmh NW 16.8 mph27.0 kmh 30.15 in1021.0 mb 0.00 in0.0 mm 0.00 in0.0 mm 0.00 in0.0 mm
05:20 PM 71.6°F22.0°C 56.5°F13.6°C 59% 5.9 mph NW9.5 kmh NW 11.8 mph19.0 kmh 30.15 in1021.0 mb 0.00 in0.0 mm 0.00 in0.0 mm 0.00 in0.0 mm
05:30 PM 71.6°F22.0°C 56.5°F13.6°C 59% 5.6 mph NW9.0 kmh NW 12.2 mph19.6 kmh 30.15 in1021.0 mb 0.00 in0.0 mm 0.00 in0.0 mm 0.00 in0.0 mm
05:40 PM 71.2°F21.8°C 57.1°F13.9°C 61% 5.4 mph NW8.7 kmh NW 15.4 mph24.8 kmh 30.15 in1021.0 mb 0.00 in0.0 mm 0.00 in0.0 mm 0.00 in0.0 mm
05:50 PM 69.8°F21.0°C 56.6°F13.7°C 63% 5.5 mph NW8.9 kmh NW 10.4 mph16.7 kmh 30.15 in1021.0 mb 0.00 in0.0 mm 0.00 in0.0 mm 0.00 in0.0 mm
06:00 PM 66.7°F19.3°C 57.8°F14.3°C 73% 4.1 mph NW6.6 kmh NW 10.4 mph16.7 kmh 30.15 in1021.0 mb 0.00 in0.0 mm 0.00 in0.0 mm 0.00 in0.0 mm
06:10 PM 65.8°F18.8°C 58.4°F14.7°C 77% 4.2 mph NW6.8 kmh NW 10.0 mph16.1 kmh 30.15 in1021.0 mb 0.00 in0.0 mm 0.00 in0.0 mm 0.00 in0.0 mm
06:20 PM 66.4°F19.1°C 58.9°F14.9°C 77% 3.3 mph NW5.3 kmh NW 9.7 mph15.6 kmh 30.15 in1021.0 mb 0.00 in0.0 mm 0.00 in0.0 mm 0.00 in0.0 mm
06:30 PM 67.5°F19.7°C 59.6°F15.3°C 76% 3.5 mph NW5.6 kmh NW 10.0 mph16.1 kmh 30.15 in1021.0 mb 0.00 in0.0 mm 0.00 in0.0 mm 0.00 in0.0 mm
06:40 PM 68.7°F20.4°C 59.3°F15.2°C 72% 4.3 mph NW6.9 kmh NW 16.5 mph26.6 kmh 30.15 in1021.0 mb 0.00 in0.0 mm 0.00 in0.0 mm 0.00 in0.0 mm
06:50 PM 69.6°F20.9°C 58.6°F14.8°C 68% 3.3 mph NW5.3 kmh NW 8.9 mph14.3 kmh 30.15 in1021.0 mb 0.00 in0.0 mm 0.00 in0.0 mm 0.00 in0.0 mm
07:00 PM 70.2°F21.2°C 57.4°F14.1°C 64% 5.0 mph NW8.0 kmh NW 10.0 mph16.1 kmh 30.15 in1021.0 mb 0.00 in0.0 mm 0.00 in0.0 mm 0.00 in0.0 mm
07:10 PM 69.4°F20.8°C 56.7°F13.7°C 64% 4.0 mph NW6.4 kmh NW 11.5 mph18.5 kmh 30.15 in1021.0 mb 0.00 in0.0 mm 0.00 in0.0 mm 0.00 in0.0 mm
07:20 PM 69.1°F20.6°C 56.0°F13.3°C 63% 6.0 mph NW9.7 kmh NW 10.4 mph16.7 kmh 30.15 in1021.0 mb 0.00 in0.0 mm 0.00 in0.0 mm 0.00 in0.0 mm
07:30 PM 68.7°F20.4°C 55.6°F13.1°C 63% 5.3 mph NNW8.5 kmh NNW 9.3 mph15.0 kmh 30.15 in1021.0 mb 0.00 in0.0 mm 0.00 in0.0 mm 0.00 in0.0 mm
07:40 PM 68.5°F20.3°C 55.4°F13.0°C 63% 5.0 mph NNW8.0 kmh NNW 8.9 mph14.3 kmh 30.15 in1021.0 mb 0.00 in0.0 mm 0.00 in0.0 mm 0.00 in0.0 mm
07:50 PM 68.4°F20.2°C 54.8°F12.7°C 62% 5.0 mph NNW8.0 kmh NNW 9.7 mph15.6 kmh 30.18 in1022.0 mb 0.00 in0.0 mm 0.00 in0.0 mm 0.00 in0.0 mm
08:00 PM 68.0°F20.0°C 53.6°F12.0°C 60% 4.3 mph N6.9 kmh N 9.3 mph15.0 kmh 30.18 in1022.0 mb 0.00 in0.0 mm 0.00 in0.0 mm 0.00 in0.0 mm
08:10 PM 67.8°F19.9°C 52.0°F11.1°C 57% 5.4 mph N8.7 kmh N 10.4 mph16.7 kmh 30.18 in1022.0 mb 0.00 in0.0 mm 0.00 in0.0 mm 0.00 in0.0 mm
08:20 PM 67.5°F19.7°C 51.7°F10.9°C 57% 5.1 mph N8.2 kmh N 10.0 mph16.1 kmh 30.18 in1022.0 mb 0.00 in0.0 mm 0.00 in0.0 mm 0.00 in0.0 mm
08:30 PM 67.1°F19.5°C 50.4°F10.2°C 55% 5.7 mph N9.2 kmh N 12.2 mph19.6 kmh 30.18 in1022.0 mb 0.00 in0.0 mm 0.00 in0.0 mm 0.00 in0.0 mm
08:40 PM 66.4°F19.1°C 49.7°F9.8°C 55% 3.7 mph N6.0 kmh N 8.9 mph14.3 kmh 30.18 in1022.0 mb 0.00 in0.0 mm 0.00 in0.0 mm 0.00 in0.0 mm
08:50 PM 65.7°F18.7°C 49.0°F9.4°C 55% 3.0 mph N4.8 kmh N 7.9 mph12.7 kmh 30.18 in1022.0 mb 0.00 in0.0 mm 0.00 in0.0 mm 0.00 in0.0 mm
09:00 PM 65.1°F18.4°C 49.0°F9.4°C 56% 1.3 mph N2.1 kmh N 5.7 mph9.2 kmh 30.18 in1022.0 mb 0.00 in0.0 mm 0.00 in0.0 mm 0.00 in0.0 mm
09:10 PM 64.6°F18.1°C 48.5°F9.2°C 56% 2.2 mph N3.5 kmh N 6.8 mph10.9 kmh 30.18 in1022.0 mb 0.00 in0.0 mm 0.00 in0.0 mm 0.00 in0.0 mm
09:20 PM 64.0°F17.8°C 48.0°F8.9°C 56% 0.7 mph N1.1 kmh N 4.3 mph6.9 kmh 30.18 in1022.0 mb 0.00 in0.0 mm 0.00 in0.0 mm 0.00 in0.0 mm
09:30 PM 62.8°F17.1°C 47.8°F8.8°C 58% 0.2 mph W0.3 kmh W 3.6 mph5.8 kmh 30.18 in1022.0 mb 0.00 in0.0 mm 0.00 in0.0 mm 0.00 in0.0 mm
09:40 PM 61.9°F16.6°C 47.8°F8.8°C 60% 0.2 mph W0.3 kmh W 3.9 mph6.3 kmh 30.18 in1022.0 mb 0.00 in0.0 mm 0.00 in0.0 mm 0.00 in0.0 mm
09:50 PM 61.2°F16.2°C 47.6°F8.7°C 61% 0.5 mph NW0.8 kmh NW 5.0 mph8.0 kmh 30.18 in1022.0 mb 0.00 in0.0 mm 0.00 in0.0 mm 0.00 in0.0 mm
10:00 PM 60.4°F15.8°C 47.4°F8.6°C 62% 0.1 mph NW0.2 kmh NW 1.8 mph2.9 kmh 30.18 in1022.0 mb 0.00 in0.0 mm 0.00 in0.0 mm 0.00 in0.0 mm
10:10 PM 59.5°F15.3°C 47.3°F8.5°C 64% Calm Calm -- 30.18 in1022.0 mb 0.00 in0.0 mm 0.00 in0.0 mm 0.00 in0.0 mm
10:20 PM 59.0°F15.0°C 47.2°F8.4°C 65% Calm Calm -- 30.21 in1023.0 mb 0.00 in0.0 mm 0.00 in0.0 mm 0.00 in0.0 mm
10:30 PM 58.5°F14.7°C 47.1°F8.4°C 66% 0.2 mph NW0.3 kmh NW 3.2 mph5.1 kmh 30.21 in1023.0 mb 0.00 in0.0 mm 0.00 in0.0 mm 0.00 in0.0 mm
10:40 PM 57.9°F14.4°C 47.0°F8.3°C 67% 0.1 mph W0.2 kmh W 2.1 mph3.4 kmh 30.21 in1023.0 mb 0.00 in0.0 mm 0.00 in0.0 mm 0.00 in0.0 mm
10:50 PM 57.6°F14.2°C 47.1°F8.4°C 68% Calm Calm -- 30.21 in1023.0 mb 0.00 in0.0 mm 0.00 in0.0 mm 0.00 in0.0 mm
11:00 PM 57.2°F14.0°C 47.1°F8.4°C 69% Calm Calm -- 30.21 in1023.0 mb 0.00 in0.0 mm 0.00 in0.0 mm 0.00 in0.0 mm
11:10 PM 56.7°F13.7°C 46.6°F8.1°C 69% Calm Calm -- 30.21 in1023.0 mb 0.00 in0.0 mm 0.00 in0.0 mm 0.00 in0.0 mm
11:20 PM 56.3°F13.5°C 46.6°F8.1°C 70% Calm Calm -- 30.21 in1023.0 mb 0.00 in0.0 mm 0.00 in0.0 mm 0.00 in0.0 mm
11:30 PM 55.9°F13.3°C 46.7°F8.2°C 71% Calm Calm -- 30.21 in1023.0 mb 0.00 in0.0 mm 0.00 in0.0 mm 0.00 in0.0 mm
11:40 PM 56.1°F13.4°C 47.2°F8.4°C 72% 0.2 mph W0.3 kmh W 2.1 mph3.4 kmh 30.21 in1023.0 mb 0.00 in0.0 mm 0.00 in0.0 mm 0.00 in0.0 mm
11:50 PM 56.1°F13.4°C 47.6°F8.7°C 73% 1.2 mph W1.9 kmh W 6.1 mph9.8 kmh 30.21 in1023.0 mb 0.00 in0.0 mm 0.00 in0.0 mm 0.00 in0.0 mm